createdAt,value
2023-04-26T00:00:09.359Z,11.03
2023-04-26T00:02:58.831Z,11.00
2023-04-26T00:05:46.126Z,10.07
2023-04-26T00:08:33.685Z,12.13
2023-04-26T00:11:23.013Z,10.47
2023-04-26T00:14:11.953Z,12.13
2023-04-26T00:16:59.089Z,12.13
2023-04-26T00:19:47.086Z,13.63
2023-04-26T00:22:34.183Z,11.80
2023-04-26T00:25:22.199Z,12.10
2023-04-26T00:28:10.845Z,11.03
2023-04-26T00:30:58.933Z,13.20
2023-04-26T00:33:46.219Z,13.07
2023-04-26T00:36:34.243Z,14.17
2023-04-26T00:39:22.949Z,16.80
2023-04-26T00:42:11.218Z,13.87
2023-04-26T00:44:59.671Z,13.13
2023-04-26T00:47:48.001Z,12.67
2023-04-26T00:50:36.171Z,11.10
2023-04-26T00:53:26.948Z,9.43
2023-04-26T00:56:15.754Z,9.67
2023-04-26T00:59:03.862Z,10.43
2023-04-26T01:01:52.344Z,11.30
2023-04-26T01:04:42.215Z,11.20
2023-04-26T01:07:29.491Z,9.43
2023-04-26T01:10:18.663Z,8.20
2023-04-26T01:13:06.444Z,10.00
2023-04-26T01:15:55.236Z,12.90
2023-04-26T01:18:44.187Z,11.90
2023-04-26T01:21:33.360Z,11.87
2023-04-26T01:24:22.707Z,10.13
2023-04-26T01:27:10.350Z,12.17
2023-04-26T01:29:57.965Z,11.23
2023-04-26T01:32:45.644Z,13.93
2023-04-26T01:35:34.030Z,11.73
2023-04-26T01:38:21.586Z,11.70
2023-04-26T01:41:10.905Z,10.97
2023-04-26T01:43:58.697Z,12.03
2023-04-26T01:46:46.070Z,10.83
2023-04-26T01:49:34.286Z,12.13
2023-04-26T01:52:23.082Z,11.37
2023-04-26T01:55:10.823Z,10.47
2023-04-26T01:57:59.821Z,7.90
2023-04-26T02:00:47.466Z,10.00
2023-04-26T02:03:34.748Z,10.50
2023-04-26T02:06:23.185Z,8.47
2023-04-26T02:09:12.129Z,7.60
2023-04-26T02:12:00.777Z,8.80
2023-04-26T02:14:50.343Z,8.53
2023-04-26T02:17:38.225Z,8.30
2023-04-26T02:20:26.431Z,12.63
2023-04-26T02:23:14.473Z,7.50
2023-04-26T02:26:05.038Z,7.90
2023-04-26T02:28:52.478Z,7.33
2023-04-26T02:31:41.620Z,8.63
2023-04-26T02:34:29.597Z,7.40
2023-04-26T02:37:17.237Z,9.33
2023-04-26T02:40:06.467Z,10.20
2023-04-26T02:42:54.110Z,8.87
2023-04-26T02:45:42.466Z,8.37
2023-04-26T02:48:33.921Z,7.93
2023-04-26T02:51:21.034Z,8.63
2023-04-26T02:54:09.102Z,9.07
2023-04-26T02:56:56.361Z,11.47
2023-04-26T02:59:44.442Z,11.20
2023-04-26T03:02:31.739Z,10.03
2023-04-26T03:05:21.389Z,10.27
2023-04-26T03:08:09.066Z,8.00
2023-04-26T03:10:57.632Z,11.70
2023-04-26T03:13:45.066Z,11.87
2023-04-26T03:16:41.796Z,8.00
2023-04-26T03:19:29.866Z,9.80
2023-04-26T03:22:18.877Z,9.47
2023-04-26T03:25:08.247Z,8.30
2023-04-26T03:27:56.589Z,8.87
2023-04-26T03:30:44.884Z,8.87
2023-04-26T03:33:32.758Z,13.77
2023-04-26T03:36:20.422Z,9.93
2023-04-26T03:39:10.251Z,9.23
2023-04-26T03:41:57.369Z,8.00
2023-04-26T03:44:45.362Z,7.43
2023-04-26T03:47:32.584Z,8.57
2023-04-26T03:50:20.269Z,8.03
2023-04-26T03:53:07.745Z,10.63
2023-04-26T03:55:58.592Z,7.87
2023-04-26T03:58:46.845Z,11.90
2023-04-26T04:01:36.998Z,8.27
2023-04-26T04:04:24.758Z,10.57
2023-04-26T04:07:14.649Z,8.80
2023-04-26T04:10:02.004Z,11.80
2023-04-26T04:12:52.349Z,10.50
2023-04-26T04:15:39.876Z,10.17
2023-04-26T04:18:27.772Z,13.20
2023-04-26T04:21:14.917Z,10.93
2023-04-26T04:24:02.980Z,10.03
2023-04-26T04:26:50.108Z,10.90
2023-04-26T04:29:39.136Z,10.30
2023-04-26T04:32:26.792Z,13.63
2023-04-26T04:35:14.898Z,9.50
2023-04-26T04:38:03.593Z,14.37
2023-04-26T04:40:51.563Z,13.30
2023-04-26T04:43:39.198Z,10.30
2023-04-26T04:46:28.838Z,9.57
2023-04-26T04:49:16.032Z,12.73
2023-04-26T04:52:03.526Z,11.57
2023-04-26T04:54:50.724Z,9.03
2023-04-26T04:57:40.098Z,9.93
2023-04-26T05:00:28.816Z,8.63
2023-04-26T05:03:27.088Z,10.83
2023-04-26T05:06:14.492Z,7.93
2023-04-26T05:09:02.683Z,8.67
2023-04-26T05:11:49.921Z,9.30
2023-04-26T05:14:38.338Z,9.13
2023-04-26T05:17:26.194Z,11.33
2023-04-26T05:20:16.030Z,9.10
2023-04-26T05:23:03.870Z,8.90
2023-04-26T05:25:53.227Z,10.00
2023-04-26T05:29:17.139Z,8.97
2023-04-26T05:32:19.398Z,9.43
2023-04-26T05:35:16.597Z,10.90
2023-04-26T05:38:03.944Z,8.73
2023-04-26T05:40:51.985Z,7.93
2023-04-26T05:43:39.196Z,11.07
2023-04-26T05:46:27.343Z,10.40
2023-04-26T05:49:16.530Z,10.43
2023-04-26T05:52:06.607Z,9.40
2023-04-26T05:54:53.899Z,12.73
2023-04-26T05:57:41.156Z,9.53
2023-04-26T06:00:29.007Z,9.90
2023-04-26T06:03:16.929Z,8.93
2023-04-26T06:06:05.474Z,10.67
2023-04-26T06:08:54.055Z,10.00
2023-04-26T06:11:42.271Z,10.37
2023-04-26T06:14:30.809Z,10.73
2023-04-26T06:17:25.749Z,9.93
2023-04-26T06:20:13.157Z,11.33
2023-04-26T06:23:00.335Z,8.47
2023-04-26T06:25:49.386Z,11.50
2023-04-26T06:28:37.213Z,11.07
2023-04-26T06:31:24.599Z,9.10
2023-04-26T06:34:12.048Z,7.43
2023-04-26T06:36:59.688Z,10.00
2023-04-26T06:39:48.573Z,6.07
2023-04-26T06:42:37.914Z,6.60
2023-04-26T06:45:37.779Z,4.97
2023-04-26T06:48:25.267Z,4.80
2023-04-26T06:51:12.590Z,6.07
2023-04-26T06:54:00.971Z,7.43
2023-04-26T06:56:48.115Z,5.00
2023-04-26T06:59:37.267Z,4.97
2023-04-26T07:02:24.687Z,7.23
2023-04-26T07:05:12.699Z,10.73
2023-04-26T07:08:00.002Z,5.00
2023-04-26T07:10:47.383Z,4.33
2023-04-26T07:13:36.330Z,7.70
2023-04-26T07:16:24.965Z,7.33
2023-04-26T07:19:12.255Z,6.33
2023-04-26T07:22:00.036Z,9.17
2023-04-26T07:24:47.253Z,8.70
2023-04-26T07:27:34.781Z,6.40
2023-04-26T07:30:22.037Z,11.40
2023-04-26T07:33:11.597Z,11.53
2023-04-26T07:35:59.827Z,5.90
2023-04-26T07:38:47.910Z,6.10
2023-04-26T07:41:35.622Z,8.70
2023-04-26T07:44:23.295Z,8.87
2023-04-26T07:47:14.844Z,5.67
2023-04-26T07:50:03.573Z,7.57
2023-04-26T07:52:51.788Z,7.05
2023-04-26T07:55:39.075Z,8.18
2023-04-26T07:58:27.272Z,10.60
2023-04-26T08:01:16.783Z,11.13
2023-04-26T08:04:04.962Z,10.20
2023-04-26T08:06:53.577Z,8.67
2023-04-26T08:09:40.823Z,7.30
2023-04-26T08:12:28.038Z,10.70
2023-04-26T08:15:16.168Z,6.97
2023-04-26T08:18:04.085Z,12.37
2023-04-26T08:20:51.735Z,5.83
2023-04-26T08:23:41.203Z,4.80
2023-04-26T08:26:28.377Z,4.97
2023-04-26T08:29:16.909Z,8.88
2023-04-26T08:32:04.150Z,7.80
2023-04-26T08:34:52.435Z,10.05
2023-04-26T08:37:40.022Z,6.60
2023-04-26T08:40:29.473Z,6.88
2023-04-26T08:43:17.580Z,5.90
2023-04-26T08:46:09.375Z,7.40
2023-04-26T08:49:10.042Z,6.63
2023-04-26T08:51:59.028Z,5.88
2023-04-26T08:54:47.927Z,4.23
2023-04-26T08:57:36.970Z,6.68
2023-04-26T09:00:26.344Z,3.83
2023-04-26T09:03:14.114Z,4.93
2023-04-26T09:06:04.477Z,4.05
2023-04-26T09:08:54.952Z,6.85
2023-04-26T09:11:58.232Z,4.97
2023-04-26T09:14:47.439Z,5.43
2023-04-26T09:17:39.811Z,4.32
2023-04-26T09:20:28.972Z,6.07
2023-04-26T09:23:17.616Z,4.17
2023-04-26T09:26:19.147Z,4.03
2023-04-26T09:29:14.260Z,10.63
2023-04-26T09:32:03.270Z,6.60
2023-04-26T09:34:50.423Z,5.20
2023-04-26T09:37:58.772Z,3.07
2023-04-26T09:40:49.761Z,5.13
2023-04-26T09:43:38.602Z,4.83
2023-04-26T09:46:26.069Z,7.13
2023-04-26T09:49:15.870Z,7.30
2023-04-26T09:52:05.020Z,4.70
2023-04-26T09:54:54.449Z,7.07
2023-04-26T09:57:44.372Z,6.37
2023-04-26T10:00:32.552Z,4.00
2023-04-26T10:03:21.000Z,5.03
2023-04-26T10:06:11.110Z,6.43
2023-04-26T10:08:58.395Z,4.17
2023-04-26T10:11:46.796Z,4.77
2023-04-26T10:14:35.303Z,5.33
2023-04-26T10:17:22.596Z,4.67
2023-04-26T10:20:14.192Z,4.67
2023-04-26T10:23:06.160Z,3.45
2023-04-26T10:25:55.099Z,5.20
2023-04-26T10:29:01.370Z,4.28
2023-04-26T10:32:09.938Z,3.58
2023-04-26T10:35:11.372Z,3.05
2023-04-26T10:38:12.918Z,5.10
2023-04-26T10:41:30.153Z,4.28
2023-04-26T10:44:41.667Z,4.63
2023-04-26T10:47:32.265Z,4.40
2023-04-26T10:50:19.783Z,3.90
2023-04-26T10:53:08.256Z,4.05
2023-04-26T10:55:57.383Z,2.50
2023-04-26T10:58:47.182Z,2.95
2023-04-26T11:01:34.387Z,3.35
2023-04-26T11:04:22.867Z,4.30
2023-04-26T11:07:13.591Z,4.45
2023-04-26T11:10:01.746Z,4.03
2023-04-26T11:13:00.944Z,5.30
2023-04-26T11:15:53.763Z,4.72
2023-04-26T11:18:45.012Z,5.22
2023-04-26T11:21:33.184Z,8.65
2023-04-26T11:24:25.780Z,4.38
2023-04-26T11:27:13.931Z,4.88
2023-04-26T11:30:08.303Z,2.67
2023-04-26T11:32:56.783Z,3.60
2023-04-26T11:35:44.448Z,3.67
2023-04-26T11:38:32.729Z,4.68
2023-04-26T11:41:22.907Z,5.50
2023-04-26T11:44:12.132Z,4.95
2023-04-26T11:47:03.879Z,3.60
2023-04-26T11:49:52.766Z,3.10
2023-04-26T11:52:40.571Z,3.58
2023-04-26T11:55:28.830Z,3.03
2023-04-26T11:58:16.194Z,3.08
2023-04-26T12:01:03.474Z,3.67
2023-04-26T12:03:54.289Z,3.50
2023-04-26T12:06:43.413Z,3.58
2023-04-26T12:09:34.463Z,2.50
2023-04-26T12:12:24.271Z,2.80
2023-04-26T12:15:13.950Z,6.15
2023-04-26T12:18:08.805Z,3.08
2023-04-26T12:21:00.279Z,5.55
2023-04-26T12:23:48.142Z,5.90
2023-04-26T12:26:44.094Z,4.68
2023-04-26T12:29:32.446Z,6.90
2023-04-26T12:32:22.459Z,3.60
2023-04-26T12:35:10.431Z,5.07
2023-04-26T12:38:01.196Z,2.85
2023-04-26T12:40:49.272Z,4.70
2023-04-26T12:43:36.667Z,5.20
2023-04-26T12:46:24.026Z,3.45
2023-04-26T12:49:11.602Z,7.10
2023-04-26T12:51:59.340Z,4.45
2023-04-26T12:54:48.996Z,4.32
2023-04-26T12:57:37.055Z,4.55
2023-04-26T13:00:24.283Z,4.40
2023-04-26T13:03:14.412Z,4.03
2023-04-26T13:06:02.324Z,7.13
2023-04-26T13:08:50.077Z,3.92
2023-04-26T13:11:38.566Z,3.85
2023-04-26T13:14:26.190Z,8.13
2023-04-26T13:17:13.335Z,4.90
2023-04-26T13:20:01.025Z,6.82
2023-04-26T13:22:48.411Z,4.35
2023-04-26T13:25:36.643Z,3.42
2023-04-26T13:28:25.743Z,5.38
2023-04-26T13:31:13.024Z,2.65
2023-04-26T13:34:01.198Z,4.70
2023-04-26T13:36:49.305Z,2.70
2023-04-26T13:39:36.945Z,2.65
2023-04-26T13:42:25.033Z,5.10
2023-04-26T13:45:15.482Z,3.15
2023-04-26T13:48:04.542Z,2.95
2023-04-26T13:50:52.401Z,2.88
2023-04-26T13:53:39.724Z,3.97
2023-04-26T13:56:27.942Z,3.05
2023-04-26T13:59:15.137Z,3.47
2023-04-26T14:02:04.585Z,4.75
2023-04-26T14:04:52.002Z,4.22
2023-04-26T14:07:41.330Z,4.57
2023-04-26T14:10:28.534Z,3.00
2023-04-26T14:13:16.596Z,4.95
2023-04-26T14:16:04.220Z,4.15
2023-04-26T14:18:53.362Z,5.60
2023-04-26T14:21:41.423Z,3.13
2023-04-26T14:24:29.130Z,2.63
2023-04-26T14:27:16.392Z,5.03
2023-04-26T14:30:04.743Z,3.97
2023-04-26T14:32:51.969Z,4.57
2023-04-26T14:35:41.888Z,3.47
2023-04-26T14:38:29.151Z,3.17
2023-04-26T14:41:18.078Z,2.78
2023-04-26T14:44:05.654Z,4.68
2023-04-26T14:46:52.968Z,3.95
2023-04-26T14:49:41.408Z,3.03
2023-04-26T14:52:34.209Z,4.97
2023-04-26T14:55:24.906Z,6.75
2023-04-26T14:58:12.066Z,6.93
2023-04-26T15:00:59.298Z,5.28
2023-04-26T15:03:46.740Z,3.33
2023-04-26T15:06:34.338Z,3.95
2023-04-26T15:09:23.326Z,3.42
2023-04-26T15:12:10.537Z,5.32
2023-04-26T15:14:58.163Z,4.95
2023-04-26T15:17:45.967Z,4.82
2023-04-26T15:20:33.111Z,4.10
2023-04-26T15:23:20.665Z,3.45
2023-04-26T15:26:09.907Z,2.50
2023-04-26T15:28:57.318Z,2.40
2023-04-26T15:31:45.108Z,4.55
2023-04-26T15:34:40.262Z,3.40
2023-04-26T15:37:28.345Z,4.60
2023-04-26T15:40:15.691Z,5.07
2023-04-26T15:43:05.323Z,3.78
2023-04-26T15:45:52.500Z,3.53
2023-04-26T15:48:39.689Z,5.10
2023-04-26T15:51:27.967Z,3.58
2023-04-26T15:54:15.651Z,6.88
2023-04-26T15:57:03.998Z,4.97
2023-04-26T15:59:52.568Z,5.18
2023-04-26T16:02:40.367Z,4.18
2023-04-26T16:05:27.964Z,3.85
2023-04-26T16:08:24.377Z,5.75
2023-04-26T16:11:20.519Z,4.43
2023-04-26T16:14:08.224Z,3.50
2023-04-26T16:16:59.318Z,5.85
2023-04-26T16:19:47.139Z,6.10
2023-04-26T16:22:34.922Z,5.90
2023-04-26T16:25:23.349Z,4.10
2023-04-26T16:28:11.911Z,7.32
2023-04-26T16:30:59.401Z,6.03
2023-04-26T16:33:48.926Z,5.18
2023-04-26T16:36:36.183Z,6.13
2023-04-26T16:39:24.374Z,4.00
2023-04-26T16:42:12.287Z,2.88
2023-04-26T16:44:59.411Z,3.90
2023-04-26T16:47:47.481Z,4.55
2023-04-26T16:50:35.983Z,7.17
2023-04-26T16:53:23.589Z,9.68
2023-04-26T16:56:11.046Z,5.53
2023-04-26T16:58:59.222Z,5.40
2023-04-26T17:01:49.422Z,4.80
2023-04-26T17:04:37.874Z,7.83
2023-04-26T17:07:26.585Z,2.70
2023-04-26T17:10:14.250Z,7.68
2023-04-26T17:13:02.474Z,3.70
2023-04-26T17:15:50.132Z,4.30
2023-04-26T17:18:37.310Z,5.67
2023-04-26T17:21:25.525Z,5.53
2023-04-26T17:24:13.980Z,4.07
2023-04-26T17:27:02.095Z,4.53
2023-04-26T17:29:49.738Z,4.77
2023-04-26T17:32:37.014Z,3.60
2023-04-26T17:35:24.880Z,4.50
2023-04-26T17:38:12.046Z,6.53
2023-04-26T17:41:00.822Z,4.97
2023-04-26T17:43:48.248Z,8.20
2023-04-26T17:46:35.644Z,8.27
2023-04-26T17:49:25.653Z,11.97
2023-04-26T17:52:12.789Z,5.50
2023-04-26T17:55:00.491Z,7.07
2023-04-26T17:57:49.448Z,4.60
2023-04-26T18:00:37.221Z,6.53
2023-04-26T18:03:25.171Z,5.57
2023-04-26T18:06:12.852Z,4.13
2023-04-26T18:09:00.245Z,6.63
2023-04-26T18:11:47.994Z,4.90
2023-04-26T18:14:44.246Z,5.80
2023-04-26T18:17:31.760Z,5.47
2023-04-26T18:20:19.307Z,9.17
2023-04-26T18:23:06.510Z,3.67
2023-04-26T18:25:53.706Z,4.67
2023-04-26T18:28:41.028Z,4.67
2023-04-26T18:31:32.455Z,2.90
2023-04-26T18:34:20.956Z,4.07
2023-04-26T18:37:09.334Z,8.47
2023-04-26T18:39:56.912Z,5.73
2023-04-26T18:42:45.297Z,5.93
2023-04-26T18:45:33.310Z,8.57
2023-04-26T18:48:22.445Z,5.07
2023-04-26T18:51:09.626Z,5.00
2023-04-26T18:53:56.958Z,7.30
2023-04-26T18:56:44.865Z,6.87
2023-04-26T18:59:32.248Z,5.43
2023-04-26T19:02:19.522Z,4.30
2023-04-26T19:05:10.206Z,7.27
2023-04-26T19:07:57.578Z,4.33
2023-04-26T19:10:45.650Z,3.97
2023-04-26T19:13:33.140Z,3.93
2023-04-26T19:16:20.393Z,5.93
2023-04-26T19:19:07.814Z,3.47
2023-04-26T19:21:56.961Z,8.53
2023-04-26T19:24:44.156Z,5.57
2023-04-26T19:27:31.501Z,6.67
2023-04-26T19:30:18.793Z,5.13
2023-04-26T19:33:06.139Z,4.20
2023-04-26T19:35:53.981Z,5.13
2023-04-26T19:38:43.051Z,6.20
2023-04-26T19:41:30.485Z,3.97
2023-04-26T19:44:18.551Z,6.80
2023-04-26T19:47:06.632Z,8.20
2023-04-26T19:49:54.486Z,7.90
2023-04-26T19:52:41.700Z,7.23
2023-04-26T19:55:30.770Z,8.17
2023-04-26T19:58:17.983Z,4.63
2023-04-26T20:01:05.308Z,5.27
2023-04-26T20:03:52.602Z,6.43
2023-04-26T20:06:39.981Z,4.97
2023-04-26T20:09:27.447Z,6.70
2023-04-26T20:12:16.094Z,6.57
2023-04-26T20:15:04.307Z,7.83
2023-04-26T20:17:51.541Z,6.03
2023-04-26T20:20:39.932Z,6.47
2023-04-26T20:23:27.350Z,7.17
2023-04-26T20:26:15.436Z,4.23
2023-04-26T20:29:04.069Z,7.10
2023-04-26T20:31:51.832Z,9.57
2023-04-26T20:34:39.086Z,6.10
2023-04-26T20:37:26.758Z,6.27
2023-04-26T20:40:13.980Z,5.20
2023-04-26T20:43:01.908Z,6.90
2023-04-26T20:45:50.616Z,5.70
2023-04-26T20:48:38.747Z,7.57
2023-04-26T20:51:26.787Z,6.53
2023-04-26T20:54:14.418Z,7.30
2023-04-26T20:57:02.287Z,6.80
2023-04-26T20:59:51.244Z,5.60
2023-04-26T21:02:40.088Z,9.00
2023-04-26T21:05:28.377Z,7.57
2023-04-26T21:08:15.744Z,6.23
2023-04-26T21:11:03.892Z,6.57
2023-04-26T21:13:52.485Z,7.30
2023-04-26T21:16:40.125Z,7.80
2023-04-26T21:19:29.259Z,10.23
2023-04-26T21:22:16.516Z,11.97
2023-04-26T21:25:05.429Z,6.33
2023-04-26T21:27:54.011Z,11.70
2023-04-26T21:30:42.320Z,8.33
2023-04-26T21:33:29.389Z,8.17
2023-04-26T21:36:18.603Z,9.73
2023-04-26T21:39:05.804Z,8.97
2023-04-26T21:41:54.047Z,7.10
2023-04-26T21:44:41.316Z,6.47
2023-04-26T21:47:28.976Z,9.57
2023-04-26T21:50:16.278Z,6.67
2023-04-26T21:53:05.842Z,10.07
2023-04-26T21:55:53.863Z,7.63
2023-04-26T21:58:42.505Z,8.33
2023-04-26T22:01:29.755Z,9.00
2023-04-26T22:04:18.011Z,7.77
2023-04-26T22:07:05.787Z,7.67
2023-04-26T22:09:55.156Z,9.50
2023-04-26T22:12:42.310Z,6.10
2023-04-26T22:15:30.523Z,7.73
2023-04-26T22:18:17.698Z,7.70
2023-04-26T22:21:05.825Z,7.67
2023-04-26T22:23:52.998Z,8.93
2023-04-26T22:26:42.066Z,7.37
2023-04-26T22:29:29.816Z,16.27
2023-04-26T22:32:17.876Z,6.17
2023-04-26T22:35:06.145Z,4.30
2023-04-26T22:37:54.327Z,7.00
2023-04-26T22:40:42.033Z,6.53
2023-04-26T22:43:31.106Z,8.20
2023-04-26T22:46:18.615Z,6.37
2023-04-26T22:49:06.835Z,6.20
2023-04-26T22:52:05.727Z,7.90
2023-04-26T22:54:55.741Z,7.27
2023-04-26T22:57:42.871Z,7.20
2023-04-26T23:00:31.944Z,8.30
2023-04-26T23:03:19.305Z,11.33
2023-04-26T23:06:07.270Z,6.97
2023-04-26T23:08:54.420Z,7.53
2023-04-26T23:11:42.454Z,6.53
2023-04-26T23:14:30.387Z,6.50
2023-04-26T23:17:20.769Z,10.03
2023-04-26T23:20:12.560Z,7.13
2023-04-26T23:22:59.681Z,6.23
2023-04-26T23:25:47.718Z,5.50
2023-04-26T23:28:35.390Z,7.37
2023-04-26T23:31:22.774Z,9.07
2023-04-26T23:34:12.177Z,6.57
2023-04-26T23:37:07.168Z,6.27
2023-04-26T23:39:56.178Z,9.80
2023-04-26T23:42:43.798Z,6.70
2023-04-26T23:45:31.433Z,8.50
2023-04-26T23:48:18.638Z,7.67
2023-04-26T23:51:08.019Z,6.80
2023-04-26T23:53:55.342Z,6.47
2023-04-26T23:56:43.579Z,8.27
2023-04-26T23:59:31.023Z,7.83
